Terminal Aerodrome Forecast
Issued by NWS North Platte, NE

Home | Current Version | Previous Version | Graphics & Text | Print | Product List | Glossary On
Versions: 1 2 3 4 5 6 7 8 9 10 11 12 13 14 15 16 17 18 19 20 21 22
000
FTUS43 KLBF 260500
TAFVTN
TAF
KVTN 260520Z 2606/2706 34004KT P6SM SCT015 OVC025
     FM260900 35003KT 3SM BR SCT009 OVC015
     FM261300 35006KT P6SM OVC020
     FM261500 36007KT P6SM OVC040
     FM261800 36008KT P6SM BKN050=

USA.gov is the U.S. government's official web portal to all federal, state and local government web resources and services.